Aérodrome :
LOGIN :

S'inscrire | Disclaimer

   EN    FR    IT 

 










Légende :    VFR   VFR Marginal   IFR   IFR Intensif   IFR Très Intensif
Visi : 
Plafond : 
>= 8 km
>= 3000ft
5 à 8 km
1000 à 3000 ft
1500m à 5 km
500 à 1000 ft
800 à 1500m
200 à 500 ft
< 800m
< 200 ft
Symboles :   Orages  Brouillard  Fortes neiges  Fortes précipitations  Vent > 20 kt
SIGMETs :   Divers  Orages  Givrage  Turbulence  Onde Orograph.  Cendres Volcan.






- Altitude de l'aérodrome : 1000 ft
- Code IATA : PEV


LHPP - Pécs Pogany

DERNIER METAR :
  • 020615Z AUTO 19004KT 150V230 2400 -RA BR FEW003 OVC054 07/07 Q1009 RERA

METARs EXPIRÉS :
  • 020545Z AUTO 02003KT 2800 RA FEW041 OVC051 07/06 Q1009
  • 020515Z AUTO 08004KT 5000 -RA NSC 07/06 Q1009 RERA
  • 020445Z AUTO 03003KT 5000 +RA FEW043 OVC050 07/06 Q1009
  • 020415Z AUTO 04002KT 9000 BKN047 07/06 Q1009
  • 012045Z AUTO 04005KT CAVOK 11/07 Q1009
  • 020345Z AUTO 07003KT CAVOK 07/05 Q1009
  • 020315Z AUTO 09003KT 060V120 CAVOK 07/05 Q1009
  • 020245Z AUTO 07005KT 040V100 CAVOK 07/05 Q1008
  • 020215Z AUTO 03006KT CAVOK 07/05 Q1008
  • 020145Z AUTO 04004KT CAVOK 07/05 Q1009
  • 020115Z AUTO 04003KT CAVOK 08/06 Q1009

TAF TAF LHPP
Valide du 02 à 06h jusqu'au 02 à 15h UTC


020515Z 0206/0215 VRB03KT CAVOK
TEMPO 0206/0211 4000 RA SHRA SCT010 OVC040



MET'MAP, la Météo Aéronautique d'un coup d'oeil ! - Copyright ORBIFLY Décembre 2007 - Disclaimer

ORBIFLY MET'MAP TEAM :

Programmation & Développement : Alexandra Zaïnal
Sur une idée originale de : Baudouin d'Aumeries
Soutien technique & logistique : Manuel Goepfert
Assistance : Marc-Olivier Méhu




SOURCES & CREDITS :

   NOAA